sensor_id;sensor_type;location;lat;lon;timestamp;P1;durP1;ratioP1;P2;durP2;ratioP2
19171;SDS011;9718;52.200;21.052;2022-07-23T00:01:30;17.07;;;8.73;;
19171;SDS011;9718;52.200;21.052;2022-07-23T00:03:57;13.30;;;9.17;;
19171;SDS011;9718;52.200;21.052;2022-07-23T00:06:25;14.40;;;9.17;;
19171;SDS011;9718;52.200;21.052;2022-07-23T00:08:52;12.13;;;8.90;;
19171;SDS011;9718;52.200;21.052;2022-07-23T00:11:19;12.83;;;8.33;;
19171;SDS011;9718;52.200;21.052;2022-07-23T00:13:46;16.83;;;9.70;;
19171;SDS011;9718;52.200;21.052;2022-07-23T00:16:13;15.37;;;9.30;;
19171;SDS011;9718;52.200;21.052;2022-07-23T00:18:40;14.43;;;8.97;;
19171;SDS011;9718;52.200;21.052;2022-07-23T00:21:07;16.23;;;9.13;;
19171;SDS011;9718;52.200;21.052;2022-07-23T00:23:34;15.33;;;9.63;;
19171;SDS011;9718;52.200;21.052;2022-07-23T00:26:01;17.13;;;9.67;;
19171;SDS011;9718;52.200;21.052;2022-07-23T00:28:28;14.83;;;9.17;;
19171;SDS011;9718;52.200;21.052;2022-07-23T00:30:55;14.77;;;10.47;;
19171;SDS011;9718;52.200;21.052;2022-07-23T00:33:22;18.37;;;9.37;;
19171;SDS011;9718;52.200;21.052;2022-07-23T00:35:49;16.13;;;10.90;;
19171;SDS011;9718;52.200;21.052;2022-07-23T00:38:16;13.57;;;9.03;;
19171;SDS011;9718;52.200;21.052;2022-07-23T00:40:43;13.67;;;9.13;;
19171;SDS011;9718;52.200;21.052;2022-07-23T00:43:10;15.07;;;9.30;;
19171;SDS011;9718;52.200;21.052;2022-07-23T00:45:37;15.23;;;9.40;;
19171;SDS011;9718;52.200;21.052;2022-07-23T00:48:04;13.87;;;9.17;;
19171;SDS011;9718;52.200;21.052;2022-07-23T00:50:32;17.70;;;9.87;;
19171;SDS011;9718;52.200;21.052;2022-07-23T00:52:59;13.97;;;9.57;;
19171;SDS011;9718;52.200;21.052;2022-07-23T00:55:26;16.53;;;9.23;;
19171;SDS011;9718;52.200;21.052;2022-07-23T00:57:53;13.90;;;9.20;;
19171;SDS011;9718;52.200;21.052;2022-07-23T01:00:22;17.63;;;9.77;;
19171;SDS011;9718;52.200;21.052;2022-07-23T01:02:49;12.73;;;9.50;;
19171;SDS011;9718;52.200;21.052;2022-07-23T01:05:16;15.47;;;9.97;;
19171;SDS011;9718;52.200;21.052;2022-07-23T01:07:51;14.93;;;9.30;;
19171;SDS011;9718;52.200;21.052;2022-07-23T01:10:22;14.27;;;9.43;;
19171;SDS011;9718;52.200;21.052;2022-07-23T01:13:03;17.00;;;9.73;;
19171;SDS011;9718;52.200;21.052;2022-07-23T01:15:32;14.50;;;9.33;;
19171;SDS011;9718;52.200;21.052;2022-07-23T01:18:00;16.87;;;9.30;;
19171;SDS011;9718;52.200;21.052;2022-07-23T01:20:28;17.07;;;9.23;;
19171;SDS011;9718;52.200;21.052;2022-07-23T01:22:55;17.73;;;10.00;;
19171;SDS011;9718;52.200;21.052;2022-07-23T01:25:23;19.07;;;10.50;;
19171;SDS011;9718;52.200;21.052;2022-07-23T01:27:51;12.50;;;8.83;;
19171;SDS011;9718;52.200;21.052;2022-07-23T01:30:19;18.33;;;9.30;;
19171;SDS011;9718;52.200;21.052;2022-07-23T01:32:47;16.27;;;9.73;;
19171;SDS011;9718;52.200;21.052;2022-07-23T01:35:14;15.00;;;9.53;;
19171;SDS011;9718;52.200;21.052;2022-07-23T01:37:41;13.93;;;8.77;;
19171;SDS011;9718;52.200;21.052;2022-07-23T01:40:08;14.67;;;8.90;;
19171;SDS011;9718;52.200;21.052;2022-07-23T01:42:36;17.23;;;9.17;;
19171;SDS011;9718;52.200;21.052;2022-07-23T01:45:04;15.70;;;10.20;;
19171;SDS011;9718;52.200;21.052;2022-07-23T01:47:31;18.07;;;9.70;;
19171;SDS011;9718;52.200;21.052;2022-07-23T01:49:59;18.33;;;10.03;;
19171;SDS011;9718;52.200;21.052;2022-07-23T01:52:26;13.80;;;9.13;;
19171;SDS011;9718;52.200;21.052;2022-07-23T01:54:53;13.97;;;9.83;;
19171;SDS011;9718;52.200;21.052;2022-07-23T01:57:20;14.87;;;9.40;;
19171;SDS011;9718;52.200;21.052;2022-07-23T01:59:47;16.37;;;9.67;;
19171;SDS011;9718;52.200;21.052;2022-07-23T02:02:14;13.87;;;9.37;;
19171;SDS011;9718;52.200;21.052;2022-07-23T02:04:41;17.50;;;9.90;;
19171;SDS011;9718;52.200;21.052;2022-07-23T02:07:08;18.37;;;9.63;;
19171;SDS011;9718;52.200;21.052;2022-07-23T02:09:35;14.93;;;9.17;;
19171;SDS011;9718;52.200;21.052;2022-07-23T02:12:02;16.00;;;9.63;;
19171;SDS011;9718;52.200;21.052;2022-07-23T02:14:30;13.87;;;9.87;;
19171;SDS011;9718;52.200;21.052;2022-07-23T02:16:57;14.07;;;9.63;;
19171;SDS011;9718;52.200;21.052;2022-07-23T02:19:24;17.03;;;10.20;;
19171;SDS011;9718;52.200;21.052;2022-07-23T02:21:52;16.20;;;9.13;;
19171;SDS011;9718;52.200;21.052;2022-07-23T02:24:20;16.00;;;9.33;;
19171;SDS011;9718;52.200;21.052;2022-07-23T02:26:48;12.20;;;8.90;;
19171;SDS011;9718;52.200;21.052;2022-07-23T02:29:15;14.00;;;9.70;;
19171;SDS011;9718;52.200;21.052;2022-07-23T02:31:42;20.13;;;9.93;;
19171;SDS011;9718;52.200;21.052;2022-07-23T02:34:10;14.73;;;9.10;;
19171;SDS011;9718;52.200;21.052;2022-07-23T02:36:38;14.00;;;9.70;;
19171;SDS011;9718;52.200;21.052;2022-07-23T02:39:06;17.30;;;10.40;;
19171;SDS011;9718;52.200;21.052;2022-07-23T02:41:33;16.23;;;10.47;;
19171;SDS011;9718;52.200;21.052;2022-07-23T02:44:00;16.20;;;9.40;;
19171;SDS011;9718;52.200;21.052;2022-07-23T02:46:27;16.70;;;9.27;;
19171;SDS011;9718;52.200;21.052;2022-07-23T02:48:54;16.57;;;9.73;;
19171;SDS011;9718;52.200;21.052;2022-07-23T02:51:22;19.60;;;10.10;;
19171;SDS011;9718;52.200;21.052;2022-07-23T02:53:49;15.50;;;9.60;;
19171;SDS011;9718;52.200;21.052;2022-07-23T02:56:16;17.20;;;9.77;;
19171;SDS011;9718;52.200;21.052;2022-07-23T02:58:43;13.23;;;9.03;;
19171;SDS011;9718;52.200;21.052;2022-07-23T03:01:10;17.10;;;9.40;;
19171;SDS011;9718;52.200;21.052;2022-07-23T03:03:37;16.70;;;9.43;;
19171;SDS011;9718;52.200;21.052;2022-07-23T03:06:04;16.10;;;9.63;;
19171;SDS011;9718;52.200;21.052;2022-07-23T03:08:31;18.10;;;10.70;;
19171;SDS011;9718;52.200;21.052;2022-07-23T03:10:58;18.43;;;10.87;;
19171;SDS011;9718;52.200;21.052;2022-07-23T03:13:25;17.60;;;11.17;;
19171;SDS011;9718;52.200;21.052;2022-07-23T03:15:52;15.30;;;10.60;;
19171;SDS011;9718;52.200;21.052;2022-07-23T03:18:19;15.63;;;10.73;;
19171;SDS011;9718;52.200;21.052;2022-07-23T03:20:46;17.40;;;10.07;;
19171;SDS011;9718;52.200;21.052;2022-07-23T03:23:13;17.67;;;10.63;;
19171;SDS011;9718;52.200;21.052;2022-07-23T03:25:42;15.83;;;9.47;;
19171;SDS011;9718;52.200;21.052;2022-07-23T03:28:09;18.03;;;9.60;;
19171;SDS011;9718;52.200;21.052;2022-07-23T03:30:36;17.80;;;10.70;;
19171;SDS011;9718;52.200;21.052;2022-07-23T03:33:03;16.73;;;10.57;;
19171;SDS011;9718;52.200;21.052;2022-07-23T03:35:30;18.07;;;11.33;;
19171;SDS011;9718;52.200;21.052;2022-07-23T03:37:57;18.40;;;11.10;;
19171;SDS011;9718;52.200;21.052;2022-07-23T03:40:24;22.60;;;10.80;;
19171;SDS011;9718;52.200;21.052;2022-07-23T03:42:51;18.53;;;10.97;;
19171;SDS011;9718;52.200;21.052;2022-07-23T03:45:18;18.30;;;10.70;;
19171;SDS011;9718;52.200;21.052;2022-07-23T03:47:45;14.60;;;10.60;;
19171;SDS011;9718;52.200;21.052;2022-07-23T03:50:12;13.93;;;10.60;;
19171;SDS011;9718;52.200;21.052;2022-07-23T03:52:40;13.80;;;8.40;;
19171;SDS011;9718;52.200;21.052;2022-07-23T03:55:07;19.13;;;10.93;;
19171;SDS011;9718;52.200;21.052;2022-07-23T03:57:34;17.50;;;10.07;;
19171;SDS011;9718;52.200;21.052;2022-07-23T04:00:03;16.33;;;9.97;;
19171;SDS011;9718;52.200;21.052;2022-07-23T04:02:33;19.87;;;11.70;;
19171;SDS011;9718;52.200;21.052;2022-07-23T04:05:00;20.00;;;10.83;;
19171;SDS011;9718;52.200;21.052;2022-07-23T04:07:27;19.20;;;11.40;;
19171;SDS011;9718;52.200;21.052;2022-07-23T04:09:54;20.03;;;11.03;;
19171;SDS011;9718;52.200;21.052;2022-07-23T04:12:21;17.37;;;11.17;;
19171;SDS011;9718;52.200;21.052;2022-07-23T04:14:49;21.03;;;10.60;;
19171;SDS011;9718;52.200;21.052;2022-07-23T04:17:15;18.63;;;10.37;;
19171;SDS011;9718;52.200;21.052;2022-07-23T04:19:43;18.30;;;11.20;;
19171;SDS011;9718;52.200;21.052;2022-07-23T04:22:10;16.73;;;11.33;;
19171;SDS011;9718;52.200;21.052;2022-07-23T04:24:37;19.07;;;11.43;;
19171;SDS011;9718;52.200;21.052;2022-07-23T04:27:05;16.17;;;10.03;;
19171;SDS011;9718;52.200;21.052;2022-07-23T04:29:32;17.97;;;10.83;;
19171;SDS011;9718;52.200;21.052;2022-07-23T04:31:59;15.37;;;11.17;;
19171;SDS011;9718;52.200;21.052;2022-07-23T04:34:26;14.53;;;10.40;;
19171;SDS011;9718;52.200;21.052;2022-07-23T04:36:53;14.87;;;10.13;;
19171;SDS011;9718;52.200;21.052;2022-07-23T04:39:20;14.87;;;10.03;;
19171;SDS011;9718;52.200;21.052;2022-07-23T04:41:47;16.70;;;10.27;;
19171;SDS011;9718;52.200;21.052;2022-07-23T04:44:14;18.43;;;10.73;;
19171;SDS011;9718;52.200;21.052;2022-07-23T04:46:41;18.30;;;11.00;;
19171;SDS011;9718;52.200;21.052;2022-07-23T04:49:09;18.47;;;9.67;;
19171;SDS011;9718;52.200;21.052;2022-07-23T04:51:36;16.03;;;10.40;;
19171;SDS011;9718;52.200;21.052;2022-07-23T04:54:03;14.55;;;10.02;;
19171;SDS011;9718;52.200;21.052;2022-07-23T04:56:30;13.37;;;10.17;;
19171;SDS011;9718;52.200;21.052;2022-07-23T04:58:57;14.88;;;10.13;;
19171;SDS011;9718;52.200;21.052;2022-07-23T05:01:25;22.55;;;11.05;;
19171;SDS011;9718;52.200;21.052;2022-07-23T05:03:52;13.38;;;9.63;;
19171;SDS011;9718;52.200;21.052;2022-07-23T05:06:19;16.52;;;10.23;;
19171;SDS011;9718;52.200;21.052;2022-07-23T05:08:46;14.88;;;10.50;;
19171;SDS011;9718;52.200;21.052;2022-07-23T05:11:13;15.43;;;10.63;;
19171;SDS011;9718;52.200;21.052;2022-07-23T05:13:40;17.55;;;10.60;;
19171;SDS011;9718;52.200;21.052;2022-07-23T05:16:07;16.88;;;9.85;;
19171;SDS011;9718;52.200;21.052;2022-07-23T05:18:34;16.33;;;10.23;;
19171;SDS011;9718;52.200;21.052;2022-07-23T05:21:01;13.65;;;10.30;;
19171;SDS011;9718;52.200;21.052;2022-07-23T05:23:28;14.60;;;9.95;;
19171;SDS011;9718;52.200;21.052;2022-07-23T05:25:55;17.48;;;9.68;;
19171;SDS011;9718;52.200;21.052;2022-07-23T05:28:22;17.95;;;9.85;;
19171;SDS011;9718;52.200;21.052;2022-07-23T05:30:49;13.65;;;9.43;;
19171;SDS011;9718;52.200;21.052;2022-07-23T05:33:20;12.95;;;9.05;;
19171;SDS011;9718;52.200;21.052;2022-07-23T05:35:47;13.20;;;9.48;;
19171;SDS011;9718;52.200;21.052;2022-07-23T05:38:14;13.75;;;9.45;;
19171;SDS011;9718;52.200;21.052;2022-07-23T05:40:41;15.95;;;9.82;;
19171;SDS011;9718;52.200;21.052;2022-07-23T05:43:08;13.65;;;9.00;;
19171;SDS011;9718;52.200;21.052;2022-07-23T05:45:35;15.65;;;8.77;;
19171;SDS011;9718;52.200;21.052;2022-07-23T05:48:02;15.98;;;9.80;;
19171;SDS011;9718;52.200;21.052;2022-07-23T05:50:29;15.65;;;9.13;;
19171;SDS011;9718;52.200;21.052;2022-07-23T05:52:56;16.13;;;8.82;;
19171;SDS011;9718;52.200;21.052;2022-07-23T05:55:24;19.58;;;9.50;;
19171;SDS011;9718;52.200;21.052;2022-07-23T05:57:51;12.55;;;8.75;;
19171;SDS011;9718;52.200;21.052;2022-07-23T06:00:18;12.85;;;8.55;;
19171;SDS011;9718;52.200;21.052;2022-07-23T06:02:45;15.35;;;8.45;;
19171;SDS011;9718;52.200;21.052;2022-07-23T06:05:18;13.15;;;8.60;;
19171;SDS011;9718;52.200;21.052;2022-07-23T06:07:46;13.65;;;8.70;;
19171;SDS011;9718;52.200;21.052;2022-07-23T06:10:13;15.40;;;8.65;;
19171;SDS011;9718;52.200;21.052;2022-07-23T06:12:40;12.43;;;8.20;;
19171;SDS011;9718;52.200;21.052;2022-07-23T06:15:08;12.65;;;8.68;;
19171;SDS011;9718;52.200;21.052;2022-07-23T06:17:37;13.82;;;8.50;;
19171;SDS011;9718;52.200;21.052;2022-07-23T06:20:08;12.57;;;8.63;;
19171;SDS011;9718;52.200;21.052;2022-07-23T06:22:36;12.52;;;8.05;;
19171;SDS011;9718;52.200;21.052;2022-07-23T06:25:03;14.95;;;8.18;;
19171;SDS011;9718;52.200;21.052;2022-07-23T06:27:37;14.75;;;7.68;;
19171;SDS011;9718;52.200;21.052;2022-07-23T06:30:05;11.50;;;7.57;;
19171;SDS011;9718;52.200;21.052;2022-07-23T06:32:34;13.82;;;8.68;;
19171;SDS011;9718;52.200;21.052;2022-07-23T06:35:01;12.13;;;8.30;;
19171;SDS011;9718;52.200;21.052;2022-07-23T06:37:28;16.55;;;8.27;;
19171;SDS011;9718;52.200;21.052;2022-07-23T06:39:55;13.52;;;8.43;;
19171;SDS011;9718;52.200;21.052;2022-07-23T06:42:23;11.30;;;7.95;;
19171;SDS011;9718;52.200;21.052;2022-07-23T06:44:50;12.80;;;8.10;;
19171;SDS011;9718;52.200;21.052;2022-07-23T06:47:16;13.80;;;8.43;;
19171;SDS011;9718;52.200;21.052;2022-07-23T06:49:44;12.10;;;7.75;;
19171;SDS011;9718;52.200;21.052;2022-07-23T06:52:11;10.40;;;7.88;;
19171;SDS011;9718;52.200;21.052;2022-07-23T06:54:38;12.40;;;7.03;;
19171;SDS011;9718;52.200;21.052;2022-07-23T06:57:05;13.35;;;7.47;;
19171;SDS011;9718;52.200;21.052;2022-07-23T06:59:32;15.23;;;7.97;;
19171;SDS011;9718;52.200;21.052;2022-07-23T07:01:59;14.48;;;7.82;;
19171;SDS011;9718;52.200;21.052;2022-07-23T07:04:26;14.13;;;6.97;;
19171;SDS011;9718;52.200;21.052;2022-07-23T07:06:53;12.95;;;7.28;;
19171;SDS011;9718;52.200;21.052;2022-07-23T07:09:20;12.20;;;8.18;;
19171;SDS011;9718;52.200;21.052;2022-07-23T07:11:47;11.30;;;8.00;;
19171;SDS011;9718;52.200;21.052;2022-07-23T07:14:14;10.68;;;8.30;;
19171;SDS011;9718;52.200;21.052;2022-07-23T07:16:41;14.32;;;7.75;;
19171;SDS011;9718;52.200;21.052;2022-07-23T07:19:08;15.43;;;7.75;;
19171;SDS011;9718;52.200;21.052;2022-07-23T07:21:35;12.00;;;7.43;;
19171;SDS011;9718;52.200;21.052;2022-07-23T07:24:02;8.68;;;7.50;;
19171;SDS011;9718;52.200;21.052;2022-07-23T07:26:30;11.95;;;7.47;;
19171;SDS011;9718;52.200;21.052;2022-07-23T07:28:57;8.88;;;7.00;;
19171;SDS011;9718;52.200;21.052;2022-07-23T07:31:25;12.45;;;7.45;;
19171;SDS011;9718;52.200;21.052;2022-07-23T07:33:52;9.60;;;6.82;;
19171;SDS011;9718;52.200;21.052;2022-07-23T07:36:20;10.40;;;7.22;;
19171;SDS011;9718;52.200;21.052;2022-07-23T07:38:47;10.93;;;7.68;;
19171;SDS011;9718;52.200;21.052;2022-07-23T07:41:15;13.40;;;7.55;;
19171;SDS011;9718;52.200;21.052;2022-07-23T07:43:42;16.15;;;7.15;;
19171;SDS011;9718;52.200;21.052;2022-07-23T07:46:09;10.57;;;7.38;;
19171;SDS011;9718;52.200;21.052;2022-07-23T07:48:37;13.55;;;7.32;;
19171;SDS011;9718;52.200;21.052;2022-07-23T07:51:04;9.68;;;7.40;;
19171;SDS011;9718;52.200;21.052;2022-07-23T07:53:31;11.65;;;7.18;;
19171;SDS011;9718;52.200;21.052;2022-07-23T07:55:58;10.18;;;7.40;;
19171;SDS011;9718;52.200;21.052;2022-07-23T07:58:26;11.52;;;7.05;;
19171;SDS011;9718;52.200;21.052;2022-07-23T08:00:54;9.85;;;7.65;;
19171;SDS011;9718;52.200;21.052;2022-07-23T08:03:21;12.55;;;7.53;;
19171;SDS011;9718;52.200;21.052;2022-07-23T08:05:48;10.32;;;7.10;;
19171;SDS011;9718;52.200;21.052;2022-07-23T08:08:15;14.18;;;7.40;;
19171;SDS011;9718;52.200;21.052;2022-07-23T08:10:42;13.57;;;6.53;;
19171;SDS011;9718;52.200;21.052;2022-07-23T08:13:12;12.10;;;7.18;;
19171;SDS011;9718;52.200;21.052;2022-07-23T08:15:40;11.95;;;7.45;;
19171;SDS011;9718;52.200;21.052;2022-07-23T08:18:08;11.93;;;7.57;;
19171;SDS011;9718;52.200;21.052;2022-07-23T08:20:35;9.50;;;7.47;;
19171;SDS011;9718;52.200;21.052;2022-07-23T08:23:03;10.35;;;7.00;;
19171;SDS011;9718;52.200;21.052;2022-07-23T08:25:33;10.82;;;6.82;;
19171;SDS011;9718;52.200;21.052;2022-07-23T08:28:03;13.60;;;7.22;;
19171;SDS011;9718;52.200;21.052;2022-07-23T08:30:32;11.68;;;7.05;;
19171;SDS011;9718;52.200;21.052;2022-07-23T08:33:10;13.57;;;7.45;;
19171;SDS011;9718;52.200;21.052;2022-07-23T08:35:59;13.38;;;7.78;;
19171;SDS011;9718;52.200;21.052;2022-07-23T08:38:30;13.23;;;7.72;;
19171;SDS011;9718;52.200;21.052;2022-07-23T08:40:57;9.38;;;7.25;;
19171;SDS011;9718;52.200;21.052;2022-07-23T08:43:26;10.07;;;7.53;;
19171;SDS011;9718;52.200;21.052;2022-07-23T08:45:55;10.43;;;7.15;;
19171;SDS011;9718;52.200;21.052;2022-07-23T08:48:30;10.30;;;7.20;;
19171;SDS011;9718;52.200;21.052;2022-07-23T08:51:00;10.50;;;7.00;;
19171;SDS011;9718;52.200;21.052;2022-07-23T08:53:29;12.15;;;7.40;;
19171;SDS011;9718;52.200;21.052;2022-07-23T08:55:58;12.23;;;7.50;;
19171;SDS011;9718;52.200;21.052;2022-07-23T08:58:28;12.60;;;7.32;;
19171;SDS011;9718;52.200;21.052;2022-07-23T09:00:56;9.55;;;7.22;;
19171;SDS011;9718;52.200;21.052;2022-07-23T09:03:25;10.60;;;7.18;;
19171;SDS011;9718;52.200;21.052;2022-07-23T09:05:54;9.57;;;6.60;;
19171;SDS011;9718;52.200;21.052;2022-07-23T09:08:26;11.18;;;6.68;;
19171;SDS011;9718;52.200;21.052;2022-07-23T09:11:02;9.07;;;6.63;;
19171;SDS011;9718;52.200;21.052;2022-07-23T09:13:32;8.13;;;6.28;;
19171;SDS011;9718;52.200;21.052;2022-07-23T09:24:04;10.77;;;7.40;;
19171;SDS011;9718;52.200;21.052;2022-07-23T09:26:37;12.52;;;6.65;;
19171;SDS011;9718;52.200;21.052;2022-07-23T09:29:08;9.75;;;6.40;;
19171;SDS011;9718;52.200;21.052;2022-07-23T09:31:43;9.50;;;6.50;;
19171;SDS011;9718;52.200;21.052;2022-07-23T09:34:24;10.60;;;6.40;;
19171;SDS011;9718;52.200;21.052;2022-07-23T09:36:54;9.90;;;6.55;;
19171;SDS011;9718;52.200;21.052;2022-07-23T09:39:27;10.43;;;6.38;;
19171;SDS011;9718;52.200;21.052;2022-07-23T09:42:12;9.80;;;7.10;;
19171;SDS011;9718;52.200;21.052;2022-07-23T09:44:41;8.15;;;6.68;;
19171;SDS011;9718;52.200;21.052;2022-07-23T09:47:13;8.20;;;6.60;;
19171;SDS011;9718;52.200;21.052;2022-07-23T09:49:40;13.00;;;5.60;;
19171;SDS011;9718;52.200;21.052;2022-07-23T09:52:47;12.32;;;6.50;;
19171;SDS011;9718;52.200;21.052;2022-07-23T09:55:16;9.55;;;6.43;;
19171;SDS011;9718;52.200;21.052;2022-07-23T09:57:44;9.02;;;6.07;;
19171;SDS011;9718;52.200;21.052;2022-07-23T10:00:15;8.70;;;6.05;;
19171;SDS011;9718;52.200;21.052;2022-07-23T10:02:42;12.82;;;6.32;;
19171;SDS011;9718;52.200;21.052;2022-07-23T10:05:13;9.18;;;6.32;;
19171;SDS011;9718;52.200;21.052;2022-07-23T10:07:42;8.30;;;6.10;;
19171;SDS011;9718;52.200;21.052;2022-07-23T10:10:16;9.18;;;7.03;;
19171;SDS011;9718;52.200;21.052;2022-07-23T10:12:44;9.43;;;6.38;;
19171;SDS011;9718;52.200;21.052;2022-07-23T10:15:18;11.93;;;6.47;;
19171;SDS011;9718;52.200;21.052;2022-07-23T10:17:45;10.75;;;6.47;;
19171;SDS011;9718;52.200;21.052;2022-07-23T10:20:12;10.73;;;6.70;;
19171;SDS011;9718;52.200;21.052;2022-07-23T10:22:42;10.93;;;6.43;;
19171;SDS011;9718;52.200;21.052;2022-07-23T10:30:54;10.85;;;6.90;;
19171;SDS011;9718;52.200;21.052;2022-07-23T10:39:29;9.50;;;6.65;;
19171;SDS011;9718;52.200;21.052;2022-07-23T10:42:11;9.48;;;6.60;;
19171;SDS011;9718;52.200;21.052;2022-07-23T10:44:47;10.02;;;6.18;;
19171;SDS011;9718;52.200;21.052;2022-07-23T10:47:20;8.30;;;6.05;;
19171;SDS011;9718;52.200;21.052;2022-07-23T10:50:20;13.18;;;6.03;;
19171;SDS011;9718;52.200;21.052;2022-07-23T10:53:08;14.13;;;6.05;;
19171;SDS011;9718;52.200;21.052;2022-07-23T10:55:46;12.68;;;6.20;;
19171;SDS011;9718;52.200;21.052;2022-07-23T10:58:19;12.05;;;6.38;;
19171;SDS011;9718;52.200;21.052;2022-07-23T11:01:41;8.20;;;5.95;;
19171;SDS011;9718;52.200;21.052;2022-07-23T11:04:04;9.50;;;6.68;;
19171;SDS011;9718;52.200;21.052;2022-07-23T11:15:08;11.23;;;6.40;;
19171;SDS011;9718;52.200;21.052;2022-07-23T11:17:38;10.68;;;6.60;;
19171;SDS011;9718;52.200;21.052;2022-07-23T11:20:26;8.98;;;6.05;;
19171;SDS011;9718;52.200;21.052;2022-07-23T11:22:57;8.98;;;5.75;;
19171;SDS011;9718;52.200;21.052;2022-07-23T11:27:54;8.57;;;6.93;;
19171;SDS011;9718;52.200;21.052;2022-07-23T11:30:37;11.40;;;6.47;;
19171;SDS011;9718;52.200;21.052;2022-07-23T11:35:37;8.95;;;6.50;;
19171;SDS011;9718;52.200;21.052;2022-07-23T11:38:16;10.65;;;6.47;;
19171;SDS011;9718;52.200;21.052;2022-07-23T11:40:49;8.32;;;6.43;;
19171;SDS011;9718;52.200;21.052;2022-07-23T11:43:18;10.05;;;6.60;;
19171;SDS011;9718;52.200;21.052;2022-07-23T11:45:48;8.15;;;6.05;;
19171;SDS011;9718;52.200;21.052;2022-07-23T11:48:19;9.35;;;6.40;;
19171;SDS011;9718;52.200;21.052;2022-07-23T11:50:50;11.88;;;7.35;;
19171;SDS011;9718;52.200;21.052;2022-07-23T11:53:22;9.13;;;6.88;;
19171;SDS011;9718;52.200;21.052;2022-07-23T11:55:54;10.20;;;6.80;;
19171;SDS011;9718;52.200;21.052;2022-07-23T11:58:38;8.05;;;6.75;;
19171;SDS011;9718;52.200;21.052;2022-07-23T12:01:06;12.20;;;6.20;;
19171;SDS011;9718;52.200;21.052;2022-07-23T12:03:48;11.65;;;6.13;;
19171;SDS011;9718;52.200;21.052;2022-07-23T12:06:16;11.80;;;6.53;;
19171;SDS011;9718;52.200;21.052;2022-07-23T12:08:44;12.52;;;6.18;;
19171;SDS011;9718;52.200;21.052;2022-07-23T12:11:12;7.28;;;6.13;;
19171;SDS011;9718;52.200;21.052;2022-07-23T12:13:39;9.45;;;6.35;;
19171;SDS011;9718;52.200;21.052;2022-07-23T12:16:06;10.65;;;6.63;;
19171;SDS011;9718;52.200;21.052;2022-07-23T12:18:34;10.90;;;6.47;;
19171;SDS011;9718;52.200;21.052;2022-07-23T12:21:03;8.35;;;6.53;;
19171;SDS011;9718;52.200;21.052;2022-07-23T12:23:31;9.85;;;7.22;;
19171;SDS011;9718;52.200;21.052;2022-07-23T12:26:00;10.25;;;7.20;;
19171;SDS011;9718;52.200;21.052;2022-07-23T12:28:29;8.75;;;6.07;;
19171;SDS011;9718;52.200;21.052;2022-07-23T12:30:57;10.35;;;7.38;;
19171;SDS011;9718;52.200;21.052;2022-07-23T12:35:56;8.88;;;6.97;;
19171;SDS011;9718;52.200;21.052;2022-07-23T12:38:26;12.65;;;7.00;;
19171;SDS011;9718;52.200;21.052;2022-07-23T12:40:55;12.90;;;6.80;;
19171;SDS011;9718;52.200;21.052;2022-07-23T12:43:28;10.27;;;6.63;;
19171;SDS011;9718;52.200;21.052;2022-07-23T12:46:03;10.35;;;6.88;;
19171;SDS011;9718;52.200;21.052;2022-07-23T12:48:37;9.75;;;6.80;;
19171;SDS011;9718;52.200;21.052;2022-07-23T12:51:07;11.73;;;6.38;;
19171;SDS011;9718;52.200;21.052;2022-07-23T12:53:47;9.82;;;6.32;;
19171;SDS011;9718;52.200;21.052;2022-07-23T12:56:27;10.80;;;6.35;;
19171;SDS011;9718;52.200;21.052;2022-07-23T12:58:56;13.30;;;7.20;;
19171;SDS011;9718;52.200;21.052;2022-07-23T13:01:26;10.68;;;6.45;;
19171;SDS011;9718;52.200;21.052;2022-07-23T13:06:42;11.20;;;6.82;;
19171;SDS011;9718;52.200;21.052;2022-07-23T13:09:13;9.00;;;6.60;;
19171;SDS011;9718;52.200;21.052;2022-07-23T13:11:42;8.43;;;6.57;;
19171;SDS011;9718;52.200;21.052;2022-07-23T13:14:13;10.57;;;6.30;;
19171;SDS011;9718;52.200;21.052;2022-07-23T13:16:41;7.75;;;6.18;;
19171;SDS011;9718;52.200;21.052;2022-07-23T13:19:09;10.02;;;6.45;;
19171;SDS011;9718;52.200;21.052;2022-07-23T13:21:56;11.05;;;6.22;;
19171;SDS011;9718;52.200;21.052;2022-07-23T13:24:24;14.82;;;6.88;;
19171;SDS011;9718;52.200;21.052;2022-07-23T13:26:52;8.15;;;6.30;;
19171;SDS011;9718;52.200;21.052;2022-07-23T13:29:19;8.80;;;6.47;;
19171;SDS011;9718;52.200;21.052;2022-07-23T13:31:47;12.23;;;7.10;;
19171;SDS011;9718;52.200;21.052;2022-07-23T13:34:16;8.57;;;6.78;;
19171;SDS011;9718;52.200;21.052;2022-07-23T13:36:44;9.38;;;6.55;;
19171;SDS011;9718;52.200;21.052;2022-07-23T13:39:11;8.95;;;6.60;;
19171;SDS011;9718;52.200;21.052;2022-07-23T13:41:38;8.25;;;6.82;;
19171;SDS011;9718;52.200;21.052;2022-07-23T13:44:05;8.55;;;5.97;;
19171;SDS011;9718;52.200;21.052;2022-07-23T13:46:33;8.48;;;6.78;;
19171;SDS011;9718;52.200;21.052;2022-07-23T13:49:01;9.70;;;6.30;;
19171;SDS011;9718;52.200;21.052;2022-07-23T13:51:29;14.40;;;6.78;;
19171;SDS011;9718;52.200;21.052;2022-07-23T13:53:56;9.63;;;6.93;;
19171;SDS011;9718;52.200;21.052;2022-07-23T13:56:25;9.20;;;7.35;;
19171;SDS011;9718;52.200;21.052;2022-07-23T13:58:53;10.85;;;7.18;;
19171;SDS011;9718;52.200;21.052;2022-07-23T14:01:20;9.27;;;6.95;;
19171;SDS011;9718;52.200;21.052;2022-07-23T14:03:47;10.48;;;7.63;;
19171;SDS011;9718;52.200;21.052;2022-07-23T14:06:15;8.07;;;6.93;;
19171;SDS011;9718;52.200;21.052;2022-07-23T14:08:43;9.00;;;6.72;;
19171;SDS011;9718;52.200;21.052;2022-07-23T14:11:11;12.70;;;6.80;;
19171;SDS011;9718;52.200;21.052;2022-07-23T14:13:39;16.00;;;6.97;;
19171;SDS011;9718;52.200;21.052;2022-07-23T14:16:06;9.50;;;7.22;;
19171;SDS011;9718;52.200;21.052;2022-07-23T14:18:34;7.65;;;6.40;;
19171;SDS011;9718;52.200;21.052;2022-07-23T14:21:01;8.25;;;6.45;;
19171;SDS011;9718;52.200;21.052;2022-07-23T14:23:29;9.38;;;6.95;;
19171;SDS011;9718;52.200;21.052;2022-07-23T14:25:56;10.43;;;6.95;;
19171;SDS011;9718;52.200;21.052;2022-07-23T14:28:23;11.32;;;6.75;;
19171;SDS011;9718;52.200;21.052;2022-07-23T14:30:50;10.40;;;7.10;;
19171;SDS011;9718;52.200;21.052;2022-07-23T14:33:18;9.32;;;6.93;;
19171;SDS011;9718;52.200;21.052;2022-07-23T14:35:46;9.25;;;7.00;;
19171;SDS011;9718;52.200;21.052;2022-07-23T14:38:13;10.23;;;6.70;;
19171;SDS011;9718;52.200;21.052;2022-07-23T14:40:42;7.95;;;6.38;;
19171;SDS011;9718;52.200;21.052;2022-07-23T14:43:10;31.20;;;8.23;;
19171;SDS011;9718;52.200;21.052;2022-07-23T14:45:38;33.58;;;7.30;;
19171;SDS011;9718;52.200;21.052;2022-07-23T14:48:05;28.40;;;6.90;;
19171;SDS011;9718;52.200;21.052;2022-07-23T14:50:34;37.78;;;6.47;;
19171;SDS011;9718;52.200;21.052;2022-07-23T14:53:01;21.85;;;6.90;;
19171;SDS011;9718;52.200;21.052;2022-07-23T14:55:30;19.95;;;5.78;;
19171;SDS011;9718;52.200;21.052;2022-07-23T14:57:58;13.00;;;5.80;;
19171;SDS011;9718;52.200;21.052;2022-07-23T15:00:26;11.43;;;6.53;;
19171;SDS011;9718;52.200;21.052;2022-07-23T15:02:55;14.20;;;6.50;;
19171;SDS011;9718;52.200;21.052;2022-07-23T15:05:24;13.98;;;5.57;;
19171;SDS011;9718;52.200;21.052;2022-07-23T15:07:52;10.13;;;5.03;;
19171;SDS011;9718;52.200;21.052;2022-07-23T15:10:19;9.07;;;5.47;;
19171;SDS011;9718;52.200;21.052;2022-07-23T15:12:48;11.13;;;5.87;;
19171;SDS011;9718;52.200;21.052;2022-07-23T15:15:16;11.13;;;6.40;;
19171;SDS011;9718;52.200;21.052;2022-07-23T15:17:44;7.50;;;5.53;;
19171;SDS011;9718;52.200;21.052;2022-07-23T15:20:11;8.43;;;6.33;;
19171;SDS011;9718;52.200;21.052;2022-07-23T15:22:43;10.93;;;7.00;;
19171;SDS011;9718;52.200;21.052;2022-07-23T15:25:11;10.87;;;6.80;;